Time;durP1;ratioP1;P1;durP2;ratioP2;P2;SDS_P1;SDS_P2;PMS_P1;PMS_P2;Temp;Humidity;BMP_temperature;BMP_pressure;BME280_temperature;BME280_humidity;BME280_pressure;Samples;Min_cycle;Max_cycle;Signal;HPM_P1;HPM_P2
2022/10/17 00:01:55;;;;;;;9.43;2.78;;;12.70;99.90;;;;;;4940268;29;20047;-85
2022/10/17 00:04:20;;;;;;;9.90;2.60;;;13.10;99.90;;;;;;4946294;28;20055;-85
2022/10/17 00:06:46;;;;;;;12.23;2.90;;;12.70;99.90;;;;;;4901906;29;20039;-85
2022/10/17 00:09:14;;;;;;;14.02;4.03;;;12.80;99.90;;;;;;4936498;29;20146;-86
2022/10/17 00:11:40;;;;;;;10.63;2.95;;;12.80;99.90;;;;;;4919811;29;20080;-86
2022/10/17 00:14:05;;;;;;;12.57;3.30;;;12.80;99.90;;;;;;4914395;29;20503;-86
2022/10/17 00:16:35;;;;;;;10.18;2.85;;;12.90;99.90;;;;;;4950434;28;20182;-85
2022/10/17 00:19:02;;;;;;;10.23;3.33;;;13.10;99.90;;;;;;4948847;28;20067;-86
2022/10/17 00:21:28;;;;;;;10.98;2.47;;;13.50;99.90;;;;;;4894632;29;20035;-86
2022/10/17 00:23:54;;;;;;;9.43;3.25;;;12.90;99.90;;;;;;4909826;29;20503;-86
2022/10/17 00:26:20;;;;;;;9.88;3.20;;;13.00;99.90;;;;;;4916287;29;20036;-86
2022/10/17 00:28:51;;;;;;;9.95;2.80;;;13.00;99.90;;;;;;4899311;29;20516;-86
2022/10/17 00:31:19;;;;;;;7.97;3.10;;;13.30;99.90;;;;;;4961611;28;20039;-86
2022/10/17 00:33:45;;;;;;;8.95;3.05;;;13.10;99.90;;;;;;4916897;29;20040;-85
2022/10/17 00:36:14;;;;;;;10.50;3.17;;;13.10;99.90;;;;;;4943059;28;20427;-86
2022/10/17 00:38:42;;;;;;;13.02;3.10;;;13.40;99.90;;;;;;4905407;29;20071;-86
2022/10/17 00:41:10;;;;;;;10.43;2.50;;;13.10;99.90;;;;;;4927273;29;20484;-85
2022/10/17 00:43:54;;;;;;;7.95;2.65;;;13.30;99.90;;;;;;4933708;29;20043;-86
2022/10/17 00:46:21;;;;;;;6.90;2.80;;;13.10;99.90;;;;;;4914741;29;20032;-86
2022/10/17 00:48:49;;;;;;;8.90;3.13;;;13.10;99.90;;;;;;4911777;29;20052;-85
2022/10/17 00:51:16;;;;;;;7.28;2.90;;;13.20;99.90;;;;;;4929648;29;20044;-85
2022/10/17 00:53:42;;;;;;;10.07;3.22;;;13.20;99.90;;;;;;4900420;29;20048;-85
2022/10/17 00:56:07;;;;;;;11.38;3.42;;;13.20;99.90;;;;;;4931175;29;20035;-85
2022/10/17 00:58:33;;;;;;;6.72;2.85;;;13.30;99.90;;;;;;4917478;29;20515;-86
2022/10/17 01:01:00;;;;;;;10.13;3.55;;;13.20;99.90;;;;;;4930973;29;20047;-86
2022/10/17 01:03:26;;;;;;;8.55;2.95;;;13.30;99.90;;;;;;4925847;29;20524;-86
2022/10/17 01:05:52;;;;;;;8.65;3.60;;;13.30;99.90;;;;;;4929607;29;20126;-86
2022/10/17 01:08:17;;;;;;;5.40;2.67;;;13.30;99.90;;;;;;4930431;29;20059;-87
2022/10/17 01:10:52;;;;;;;7.05;3.28;;;13.60;99.90;;;;;;4943123;28;20044;-86
2022/10/17 01:13:33;;;;;;;10.50;3.28;;;13.30;99.90;;;;;;4915033;29;20403;-86
2022/10/17 01:16:13;;;;;;;10.05;2.90;;;13.30;99.90;;;;;;4941349;28;20110;-85
2022/10/17 01:19:02;;;;;;;6.35;3.08;;;13.40;99.90;;;;;;4945570;28;20444;-85
2022/10/17 01:21:37;;;;;;;8.15;3.85;;;13.30;99.90;;;;;;4933316;29;20071;-86
2022/10/17 01:24:21;;;;;;;8.20;3.38;;;13.30;99.90;;;;;;4947315;28;20051;-86
2022/10/17 01:27:35;;;;;;;7.45;3.40;;;13.30;99.90;;;;;;4944037;28;20054;-85
2022/10/17 01:30:41;;;;;;;7.57;3.15;;;13.30;99.90;;;;;;4904987;29;20071;-86
2022/10/17 01:33:13;;;;;;;10.10;4.18;;;13.30;99.90;;;;;;4942774;28;20047;-85
2022/10/17 01:35:54;;;;;;;9.13;3.63;;;13.30;99.90;;;;;;4930116;29;20127;-86
2022/10/17 01:38:29;;;;;;;11.60;3.72;;;13.30;99.90;;;;;;4944626;28;20046;-86
2022/10/17 01:41:20;;;;;;;8.20;3.38;;;13.30;99.90;;;;;;4941103;28;20095;-86
2022/10/17 01:43:57;;;;;;;6.82;3.47;;;13.30;99.90;;;;;;4906529;29;20059;-86
2022/10/17 01:46:37;;;;;;;6.57;3.20;;;13.40;99.90;;;;;;4911960;29;20046;-86
2022/10/17 01:49:06;;;;;;;4.22;3.22;;;13.20;99.90;;;;;;4910516;29;20139;-85
2022/10/17 01:51:45;;;;;;;8.10;3.75;;;13.20;99.90;;;;;;4945624;28;20083;-85
2022/10/17 01:54:16;;;;;;;6.03;3.97;;;13.20;99.90;;;;;;4940756;28;20043;-85
2022/10/17 01:56:43;;;;;;;6.93;3.90;;;13.20;99.90;;;;;;4930832;29;20048;-86
2022/10/17 01:59:17;;;;;;;10.88;3.65;;;13.20;99.90;;;;;;4931793;29;20118;-86
2022/10/17 02:01:44;;;;;;;7.80;4.13;;;13.60;99.90;;;;;;4914124;29;20044;-86
2022/10/17 02:04:11;;;;;;;7.45;4.40;;;12.90;99.90;;;;;;4930750;29;20067;-86
2022/10/17 02:06:37;;;;;;;8.25;4.40;;;13.10;99.90;;;;;;4899264;29;20055;-86
2022/10/17 02:09:23;;;;;;;11.05;5.10;;;13.10;99.90;;;;;;4945362;29;20039;-86
2022/10/17 02:12:10;;;;;;;9.40;5.05;;;13.10;99.90;;;;;;4935835;29;20067;-86
2022/10/17 02:15:09;;;;;;;10.25;5.10;;;13.10;99.90;;;;;;4915039;29;20407;-86
2022/10/17 02:17:41;;;;;;;8.75;4.78;;;13.10;99.90;;;;;;4927681;29;20501;-86
2022/10/17 02:20:21;;;;;;;8.55;4.95;;;13.20;99.90;;;;;;4914292;29;20130;-86
2022/10/17 02:22:50;;;;;;;13.82;4.90;;;13.10;99.90;;;;;;4945486;28;20110;-86
2022/10/17 02:25:50;;;;;;;6.30;5.13;;;13.00;99.90;;;;;;4911756;29;20095;-86
2022/10/17 02:28:22;;;;;;;10.20;4.93;;;13.00;99.90;;;;;;4901930;29;20044;-85
2022/10/17 02:30:56;;;;;;;6.90;5.30;;;13.00;99.90;;;;;;4931171;29;20146;-85
2022/10/17 02:33:30;;;;;;;12.43;5.25;;;13.70;99.90;;;;;;4931912;29;20071;-85
2022/10/17 02:36:01;;;;;;;9.23;5.00;;;13.00;99.90;;;;;;4922985;29;20054;-85
2022/10/17 02:38:29;;;;;;;10.05;5.30;;;13.00;99.90;;;;;;4934060;29;20043;-85
2022/10/17 02:40:55;;;;;;;9.95;5.50;;;12.90;99.90;;;;;;4946576;28;20039;-86
2022/10/17 02:43:22;;;;;;;11.35;5.28;;;12.90;99.90;;;;;;4913283;29;20045;-86
2022/10/17 02:45:49;;;;;;;7.63;5.57;;;12.90;99.90;;;;;;4930705;29;20123;-85
2022/10/17 02:48:29;;;;;;;10.30;5.97;;;12.90;99.90;;;;;;4927474;29;20460;-85
2022/10/17 02:51:09;;;;;;;10.30;6.88;;;12.90;99.90;;;;;;4930967;29;20055;-87
2022/10/17 02:54:00;;;;;;;8.50;7.53;;;12.90;99.90;;;;;;4915587;29;20520;-85
2022/10/17 02:56:29;;;;;;;9.43;7.80;;;12.90;99.90;;;;;;4914983;29;20047;-85
2022/10/17 02:58:58;;;;;;;9.90;8.70;;;12.80;99.90;;;;;;4944996;28;20099;-85
2022/10/17 03:01:24;;;;;;;17.83;8.15;;;12.80;99.90;;;;;;4898719;29;20119;-86
2022/10/17 03:03:49;;;;;;;9.70;7.93;;;12.90;99.90;;;;;;4931363;29;20179;-85
2022/10/17 03:06:15;;;;;;;10.02;8.02;;;12.80;99.90;;;;;;4943279;28;20032;-85
2022/10/17 03:08:41;;;;;;;8.60;7.70;;;13.50;99.90;;;;;;4931542;29;20150;-85
2022/10/17 03:11:07;;;;;;;9.15;8.25;;;12.90;99.90;;;;;;4932076;29;20088;-86
2022/10/17 03:13:33;;;;;;;9.82;8.70;;;12.80;99.90;;;;;;4912550;29;20044;-85
2022/10/17 03:15:58;;;;;;;10.20;9.20;;;12.90;99.90;;;;;;4928382;29;20033;-86
2022/10/17 03:18:24;;;;;;;12.20;9.82;;;12.90;99.90;;;;;;4946034;28;20069;-85
2022/10/17 03:20:49;;;;;;;11.75;9.80;;;12.90;99.90;;;;;;4913365;29;20623;-86
2022/10/17 03:23:15;;;;;;;13.43;9.70;;;12.90;99.90;;;;;;4928512;29;20028;-86
2022/10/17 03:25:41;;;;;;;10.65;9.75;;;12.90;99.90;;;;;;4912495;29;20087;-86
2022/10/17 03:28:07;;;;;;;10.48;9.63;;;12.90;99.90;;;;;;4929108;29;20459;-86
2022/10/17 03:30:33;;;;;;;11.55;10.00;;;13.00;99.90;;;;;;4913267;29;20032;-85
2022/10/17 03:32:59;;;;;;;11.23;10.23;;;13.00;99.90;;;;;;4913283;29;20524;-85
2022/10/17 03:35:25;;;;;;;12.23;10.77;;;12.90;99.90;;;;;;4917408;29;20043;-86
2022/10/17 03:37:51;;;;;;;10.70;9.60;;;12.90;99.90;;;;;;4946515;28;20050;-84
2022/10/17 03:40:17;;;;;;;16.92;11.77;;;13.00;99.90;;;;;;4917879;29;20031;-86
2022/10/17 03:42:43;;;;;;;11.60;10.40;;;13.00;99.90;;;;;;4932556;29;20399;-85
2022/10/17 03:45:08;;;;;;;15.45;10.73;;;13.00;99.90;;;;;;4906663;29;20103;-85
2022/10/17 03:47:34;;;;;;;16.80;10.85;;;13.00;99.90;;;;;;4903166;29;20058;-85
2022/10/17 03:50:00;;;;;;;11.05;9.93;;;13.00;99.90;;;;;;4898827;29;20068;-85
2022/10/17 03:52:25;;;;;;;12.52;11.23;;;13.00;99.90;;;;;;4942674;28;20039;-85
2022/10/17 03:54:53;;;;;;;10.90;9.80;;;13.00;99.90;;;;;;4932041;29;20047;-85
2022/10/17 03:57:19;;;;;;;17.05;10.98;;;13.00;99.90;;;;;;4917265;29;20416;-85
2022/10/17 03:59:44;;;;;;;12.13;11.02;;;13.00;99.90;;;;;;4933496;29;20046;-85
2022/10/17 04:02:10;;;;;;;16.40;11.50;;;13.00;99.90;;;;;;4934482;29;20039;-84
2022/10/17 04:04:36;;;;;;;12.95;11.70;;;13.10;99.90;;;;;;4928557;29;20050;-86
2022/10/17 04:07:01;;;;;;;12.57;11.35;;;13.10;99.90;;;;;;4947600;28;20955;-84
2022/10/17 04:09:27;;;;;;;14.82;11.15;;;13.80;99.90;;;;;;4932250;29;20040;-84
2022/10/17 04:11:52;;;;;;;13.90;11.68;;;13.10;99.90;;;;;;4946082;28;21490;-84
2022/10/17 04:14:18;;;;;;;12.40;11.30;;;13.10;99.90;;;;;;4947187;28;20492;-86
2022/10/17 04:16:50;;;;;;;17.40;12.68;;;13.20;99.90;;;;;;4901367;29;20047;-84
2022/10/17 04:19:15;;;;;;;17.52;12.10;;;13.20;99.90;;;;;;4902367;29;20658;-84
2022/10/17 04:21:41;;;;;;;13.73;12.48;;;13.20;99.90;;;;;;4925065;29;20040;-84
2022/10/17 04:24:10;;;;;;;14.10;12.90;;;13.30;99.90;;;;;;4948508;28;20040;-84
2022/10/17 04:26:35;;;;;;;13.15;12.05;;;13.30;99.90;;;;;;4915943;29;20122;-83
2022/10/17 04:29:01;;;;;;;14.57;12.05;;;13.30;99.90;;;;;;4917067;29;20524;-84
2022/10/17 04:31:26;;;;;;;17.98;12.55;;;13.30;99.90;;;;;;4916241;29;20090;-84
2022/10/17 04:33:52;;;;;;;14.63;12.75;;;13.40;99.90;;;;;;4934765;29;20415;-84
2022/10/17 04:36:19;;;;;;;13.00;11.82;;;13.40;99.90;;;;;;4910824;29;20077;-84
2022/10/17 04:38:46;;;;;;;18.73;13.82;;;13.40;99.90;;;;;;4918954;29;20140;-84
2022/10/17 04:41:15;;;;;;;13.15;11.68;;;13.40;99.90;;;;;;4916891;29;20485;-83
2022/10/17 04:43:41;;;;;;;15.32;12.05;;;13.40;99.90;;;;;;4901428;29;20110;-83
2022/10/17 04:46:10;;;;;;;14.40;13.00;;;13.50;99.90;;;;;;4917117;29;20040;-84
2022/10/17 04:48:36;;;;;;;14.60;13.10;;;13.50;99.90;;;;;;4949118;28;20066;-84
2022/10/17 04:51:04;;;;;;;13.70;12.48;;;13.60;99.90;;;;;;4917190;29;20042;-84
2022/10/17 04:53:31;;;;;;;15.05;13.55;;;13.60;99.90;;;;;;4930439;29;20412;-85
2022/10/17 04:55:57;;;;;;;14.52;13.02;;;13.60;99.90;;;;;;4902063;29;20047;-84
2022/10/17 04:58:23;;;;;;;14.32;12.85;;;13.60;99.90;;;;;;4902461;29;20040;-84
2022/10/17 05:00:49;;;;;;;18.55;12.35;;;13.70;99.90;;;;;;4944282;28;20040;-84
2022/10/17 05:03:15;;;;;;;15.57;12.70;;;13.60;99.90;;;;;;4913868;29;20404;-84
2022/10/17 05:05:42;;;;;;;14.10;12.65;;;13.70;99.90;;;;;;4945568;29;20758;-85
2022/10/17 05:08:09;;;;;;;17.00;13.50;;;13.80;99.90;;;;;;4946123;29;20040;-84
2022/10/17 05:10:40;;;;;;;14.35;13.13;;;13.80;99.90;;;;;;4911792;29;20044;-85
2022/10/17 05:13:06;;;;;;;17.10;12.88;;;13.80;99.90;;;;;;4923457;29;20046;-84
2022/10/17 05:15:32;;;;;;;15.00;13.48;;;13.80;99.90;;;;;;4918853;29;20489;-84
2022/10/17 05:18:03;;;;;;;19.38;12.60;;;13.90;99.90;;;;;;4950064;28;20144;-84
2022/10/17 05:20:29;;;;;;;15.95;12.63;;;13.90;99.90;;;;;;4916221;29;20038;-84
2022/10/17 05:22:54;;;;;;;14.65;13.13;;;13.90;99.90;;;;;;4916624;29;20523;-84
2022/10/17 05:25:20;;;;;;;14.02;12.65;;;13.90;99.90;;;;;;4922445;29;20103;-85
2022/10/17 05:31:23;;;;;;;15.27;12.32;;;13.90;99.90;;;;;;4919221;29;20123;-87
2022/10/17 05:33:49;;;;;;;14.32;12.35;;;14.00;99.90;;;;;;4933615;29;20071;-87
2022/10/17 05:36:14;;;;;;;16.98;12.70;;;14.00;99.90;;;;;;4905808;29;20044;-85
2022/10/17 05:38:40;;;;;;;13.77;12.48;;;14.90;99.90;;;;;;4921532;29;20047;-87
2022/10/17 05:41:06;;;;;;;17.50;12.65;;;14.10;99.90;;;;;;4923139;29;20042;-87
2022/10/17 05:43:33;;;;;;;16.40;12.80;;;14.00;99.90;;;;;;4915486;29;20041;-87
2022/10/17 05:46:03;;;;;;;16.23;13.52;;;14.10;99.90;;;;;;4919838;29;20036;-86
2022/10/17 05:48:29;;;;;;;15.95;12.77;;;14.20;99.90;;;;;;4898894;29;20504;-84
2022/10/17 05:50:59;;;;;;;14.30;12.15;;;14.20;99.90;;;;;;4942743;28;20048;-87
2022/10/17 05:53:33;;;;;;;13.75;12.23;;;14.70;99.90;;;;;;4913755;29;20100;-86
2022/10/17 05:56:01;;;;;;;16.67;12.55;;;14.60;99.90;;;;;;4945693;28;20159;-86
2022/10/17 05:58:27;;;;;;;15.60;12.45;;;14.40;99.90;;;;;;4946464;28;20053;-87
2022/10/17 06:01:01;;;;;;;19.75;12.52;;;14.30;99.90;;;;;;4943133;28;20080;-83
2022/10/17 06:03:30;;;;;;;21.25;12.32;;;14.40;99.90;;;;;;4909334;29;20032;-86
2022/10/17 06:06:01;;;;;;;13.55;12.10;;;14.50;99.90;;;;;;4914191;29;20035;-86
2022/10/17 06:08:27;;;;;;;13.38;11.95;;;14.60;99.90;;;;;;4945989;28;20090;-87
2022/10/17 06:10:52;;;;;;;21.98;11.80;;;14.60;99.90;;;;;;4905984;29;20325;-83
2022/10/17 06:17:00;;;;;;;12.88;10.30;;;14.70;99.90;;;;;;4932415;29;20611;-86
2022/10/17 06:19:33;;;;;;;12.38;10.07;;;14.70;99.90;;;;;;4927200;29;20059;-86
2022/10/17 06:22:04;;;;;;;12.45;10.23;;;14.80;99.90;;;;;;4943800;29;20039;-87
2022/10/17 06:24:43;;;;;;;13.95;10.73;;;14.80;99.90;;;;;;4928706;29;20064;-87
2022/10/17 06:27:58;;;;;;;12.77;11.23;;;14.90;99.90;;;;;;4922389;29;20131;-86
2022/10/17 06:30:44;;;;;;;13.73;10.30;;;14.90;99.90;;;;;;4944296;28;20497;-86
2022/10/17 06:33:19;;;;;;;10.68;9.68;;;15.00;99.90;;;;;;4914305;29;20044;-87
2022/10/17 06:35:51;;;;;;;14.55;10.15;;;15.00;99.90;;;;;;4914884;29;20036;-85
2022/10/17 06:38:17;;;;;;;15.02;9.65;;;15.10;99.90;;;;;;4902187;29;20526;-83
2022/10/17 06:41:19;;;;;;;11.02;9.55;;;15.60;99.90;;;;;;4927286;29;20052;-88
2022/10/17 06:44:15;;;;;;;11.63;10.52;;;15.10;99.90;;;;;;4914625;29;20043;-86
2022/10/17 06:47:27;;;;;;;13.65;10.35;;;15.30;99.90;;;;;;4901372;29;20106;-90
2022/10/17 06:50:41;;;;;;;13.18;9.48;;;15.10;99.90;;;;;;4911525;29;20047;-84
2022/10/17 06:53:06;;;;;;;15.40;9.85;;;15.10;99.90;;;;;;4926435;29;20488;-85
2022/10/17 06:55:35;;;;;;;10.77;8.95;;;15.20;99.90;;;;;;4949397;28;20087;-84
2022/10/17 06:58:02;;;;;;;13.75;9.88;;;15.30;99.90;;;;;;4920942;29;20459;-86
2022/10/17 07:00:56;;;;;;;13.10;9.68;;;15.20;99.90;;;;;;4945713;28;20040;-85
2022/10/17 07:04:10;;;;;;;10.82;8.82;;;15.60;99.90;;;;;;4874416;29;20129;-89
2022/10/17 07:06:54;;;;;;;10.77;8.93;;;15.30;99.90;;;;;;4862745;29;20044;-86
2022/10/17 07:12:54;;;;;;;10.07;9.07;;;15.40;99.90;;;;;;4898483;29;20080;-84
2022/10/17 07:15:26;;;;;;;11.73;8.00;;;15.50;99.90;;;;;;4882270;29;20135;-83
2022/10/17 07:18:01;;;;;;;10.50;8.55;;;15.70;99.90;;;;;;4901223;29;20048;-87
2022/10/17 07:24:45;;;;;;;10.40;7.95;;;15.60;99.90;;;;;;4934567;29;20031;-86
2022/10/17 07:28:10;;;;;;;9.35;7.63;;;15.70;99.90;;;;;;4959183;28;20514;-85
2022/10/17 07:30:35;;;;;;;8.43;7.15;;;15.80;99.90;;;;;;4947522;28;20130;-86
2022/10/17 07:33:01;;;;;;;10.68;7.10;;;15.80;99.90;;;;;;4921113;29;20193;-86
2022/10/17 07:35:26;;;;;;;9.45;7.93;;;15.80;99.90;;;;;;4941540;29;20031;-90
2022/10/17 07:37:52;;;;;;;8.43;7.60;;;15.90;99.90;;;;;;4921519;29;20091;-85
2022/10/17 07:40:17;;;;;;;9.90;7.30;;;15.90;99.90;;;;;;4957925;28;20079;-86
2022/10/17 07:42:46;;;;;;;8.82;6.75;;;16.60;99.90;;;;;;4908826;29;20103;-86
2022/10/17 07:45:11;;;;;;;9.82;7.47;;;16.00;99.90;;;;;;4910853;29;20385;-85
2022/10/17 08:02:23;;;;;;;9.68;6.47;;;16.30;99.90;;;;;;4929821;29;20078;-84
2022/10/17 08:05:20;;;;;;;13.02;6.43;;;16.90;99.90;;;;;;4930211;29;20044;-88
2022/10/17 08:11:37;;;;;;;7.93;6.20;;;16.50;99.90;;;;;;4916848;29;20050;-87
2022/10/17 08:14:07;;;;;;;9.10;5.97;;;16.70;99.90;;;;;;4899008;29;20036;-85
2022/10/17 08:16:33;;;;;;;7.68;6.88;;;16.70;99.90;;;;;;4900560;29;20051;-86
2022/10/17 08:19:13;;;;;;;11.35;6.47;;;16.70;99.90;;;;;;4900461;29;20552;-87
2022/10/17 08:22:04;;;;;;;7.93;5.40;;;16.80;99.90;;;;;;4924651;29;20062;-87
2022/10/17 08:25:59;;;;;;;9.10;5.78;;;16.80;99.90;;;;;;4916995;29;20099;-87
2022/10/17 08:32:43;;;;;;;8.13;6.40;;;16.80;99.90;;;;;;4905703;29;20533;-86
2022/10/17 08:35:29;;;;;;;6.43;5.72;;;16.80;99.90;;;;;;4916070;29;20095;-86
2022/10/17 08:50:00;;;;;;;8.07;6.05;;;16.70;99.90;;;;;;4934911;29;20113;-87
2022/10/17 08:53:07;;;;;;;9.77;5.90;;;16.80;99.90;;;;;;4937680;29;20047;-86
2022/10/17 08:56:53;;;;;;;9.63;6.13;;;16.80;99.90;;;;;;4890388;29;20135;-86
2022/10/17 09:00:28;;;;;;;11.70;6.20;;;16.80;99.90;;;;;;4931521;29;20050;-86
2022/10/17 09:04:10;;;;;;;10.07;6.13;;;16.80;99.90;;;;;;4936880;29;20091;-86
2022/10/17 09:07:40;;;;;;;8.07;6.10;;;16.80;99.90;;;;;;4925510;29;20055;-86
2022/10/17 09:11:03;;;;;;;6.35;5.72;;;16.80;99.90;;;;;;4912571;29;20153;-86
2022/10/17 09:14:12;;;;;;;7.72;5.65;;;16.80;99.90;;;;;;4895422;29;20168;-86
2022/10/17 09:17:59;;;;;;;11.48;6.28;;;16.80;99.90;;;;;;4901083;29;20087;-86
2022/10/17 09:24:42;;;;;;;7.18;5.40;;;16.70;99.90;;;;;;4923494;29;20114;-85
2022/10/17 09:27:54;;;;;;;13.80;6.40;;;16.80;99.90;;;;;;4882227;29;20054;-86
2022/10/17 09:35:28;;;;;;;14.15;5.75;;;16.80;99.90;;;;;;4918376;29;20884;-86
2022/10/17 09:38:31;;;;;;;18.52;5.63;;;16.80;99.90;;;;;;4921216;29;20050;-87
2022/10/17 09:41:46;;;;;;;12.52;6.30;;;16.80;99.90;;;;;;4895572;29;20040;-86
2022/10/17 09:49:01;;;;;;;9.70;6.78;;;16.80;99.90;;;;;;4859457;29;20138;-87
2022/10/17 09:52:58;;;;;;;15.95;6.88;;;16.80;99.90;;;;;;4874442;29;20048;-87
2022/10/17 10:00:13;;;;;;;9.38;6.88;;;16.70;99.90;;;;;;4878591;29;20100;-86
2022/10/17 10:03:42;;;;;;;12.02;7.40;;;16.70;99.90;;;;;;4859337;29;20089;-86
2022/10/17 10:10:50;;;;;;;13.90;7.32;;;16.60;99.90;;;;;;4857111;29;20036;-86
2022/10/17 10:17:40;;;;;;;11.32;7.38;;;16.60;99.90;;;;;;4768111;30;20564;-86
2022/10/17 10:20:59;;;;;;;13.32;7.75;;;16.50;99.90;;;;;;4751812;30;20500;-86
2022/10/17 10:43:36;;;;;;;13.57;8.68;;;16.50;99.90;;;;;;4733001;30;20047;-86
2022/10/17 10:47:04;;;;;;;13.32;8.40;;;16.50;99.90;;;;;;4731755;30;20652;-86
2022/10/17 10:50:39;;;;;;;16.33;9.32;;;16.50;99.90;;;;;;4684628;30;20521;-86
2022/10/17 10:53:35;;;;;;;12.07;9.00;;;16.50;99.90;;;;;;4726831;30;20064;-86
2022/10/17 10:57:02;;;;;;;14.88;9.35;;;16.50;99.90;;;;;;4773106;30;20111;-86
2022/10/17 11:00:30;;;;;;;13.48;9.55;;;16.50;99.90;;;;;;4782241;30;20050;-86
2022/10/17 11:07:44;;;;;;;13.48;9.10;;;16.50;99.90;;;;;;4830036;29;20165;-86
2022/10/17 11:29:59;;;;;;;12.80;9.57;;;16.60;99.90;;;;;;4932109;29;20492;-86
2022/10/17 11:38:02;;;;;;;14.32;10.13;;;16.60;99.90;;;;;;4871874;29;20047;-86
2022/10/17 11:42:05;;;;;;;15.05;10.13;;;16.60;99.90;;;;;;4816484;29;20092;-86
2022/10/17 11:49:36;;;;;;;17.52;11.45;;;16.60;99.90;;;;;;4814838;29;20469;-86
2022/10/17 11:52:56;;;;;;;12.15;9.57;;;16.60;99.90;;;;;;4816832;29;20080;-86
2022/10/17 12:03:22;;;;;;;15.13;9.68;;;16.90;99.90;;;;;;4814416;29;20072;-87
2022/10/17 12:32:34;;;;;;;9.50;6.90;;;17.10;99.90;;;;;;4857545;29;20559;-86
2022/10/17 12:35:05;;;;;;;13.32;8.13;;;17.00;99.90;;;;;;4840831;29;20186;-86
2022/10/17 12:37:52;;;;;;;8.45;6.97;;;17.00;99.90;;;;;;4908982;29;20040;-86
2022/10/17 12:40:59;;;;;;;9.57;7.80;;;17.00;99.90;;;;;;4909737;29;20036;-86
2022/10/17 12:44:27;;;;;;;11.18;7.18;;;16.90;99.90;;;;;;4899147;29;20050;-86
2022/10/17 12:47:49;;;;;;;8.57;7.50;;;16.90;99.90;;;;;;4926063;29;20047;-86
2022/10/17 12:58:11;;;;;;;12.85;7.80;;;16.80;99.90;;;;;;4907277;29;20091;-86
2022/10/17 13:01:04;;;;;;;11.52;8.25;;;17.10;99.90;;;;;;4911220;29;20048;-86
2022/10/17 13:15:35;;;;;;;7.65;3.10;;;16.70;99.90;;;;;;4907223;29;20197;-85
2022/10/17 13:29:14;;;;;;;5.05;2.78;;;16.40;99.90;;;;;;4875220;29;20043;-86
2022/10/17 13:46:43;;;;;;;5.32;3.15;;;16.20;99.90;;;;;;4895769;29;20553;-86
2022/10/17 13:49:35;;;;;;;12.95;3.38;;;16.20;99.90;;;;;;4847042;29;20049;-86
2022/10/17 13:52:38;;;;;;;4.07;2.17;;;16.30;99.90;;;;;;4903902;29;20055;-86
2022/10/17 13:59:25;;;;;;;6.80;1.42;;;16.10;99.90;;;;;;4896632;29;20104;-86
2022/10/17 14:02:44;;;;;;;2.70;1.70;;;16.10;99.90;;;;;;4834267;29;20563;-86
2022/10/17 14:28:15;;;;;;;5.43;1.13;;;15.80;99.90;;;;;;4818182;29;20159;-87
2022/10/17 15:09:42;;;;;;;2.13;0.90;;;15.50;99.90;;;;;;4867030;29;20071;-86
2022/10/17 15:28:57;;;;;;;3.33;1.30;;;15.60;99.90;;;;;;4878211;29;20092;-87
2022/10/17 15:43:35;;;;;;;3.58;1.15;;;15.70;99.90;;;;;;4893098;29;20044;-87
2022/10/17 15:46:28;;;;;;;3.67;1.13;;;15.60;99.90;;;;;;4879211;29;20212;-86
2022/10/17 16:04:44;;;;;;;5.82;1.95;;;15.60;99.90;;;;;;4877753;29;20036;-87
2022/10/17 16:07:10;;;;;;;3.35;1.85;;;15.40;99.90;;;;;;4836943;29;20036;-87
2022/10/17 16:09:38;;;;;;;2.67;2.22;;;15.40;99.90;;;;;;4894645;29;20520;-87
2022/10/17 16:12:09;;;;;;;7.85;2.05;;;15.30;99.90;;;;;;4928816;29;20040;-87
2022/10/17 16:14:37;;;;;;;3.55;1.70;;;15.30;99.90;;;;;;4932787;29;20523;-87
2022/10/17 16:17:03;;;;;;;9.38;3.17;;;15.40;99.90;;;;;;4946064;28;20051;-87
2022/10/17 16:19:29;;;;;;;7.78;2.55;;;16.10;99.90;;;;;;4933948;29;20040;-87
2022/10/17 16:21:57;;;;;;;5.38;2.65;;;15.30;99.90;;;;;;4916950;29;20568;-87
2022/10/17 16:24:23;;;;;;;7.97;2.72;;;15.30;99.90;;;;;;4949295;28;20040;-87
2022/10/17 16:26:49;;;;;;;5.15;2.58;;;15.20;99.90;;;;;;4946286;28;20187;-86
2022/10/17 16:29:18;;;;;;;5.35;2.45;;;15.20;99.90;;;;;;4916715;29;20048;-87
2022/10/17 16:31:45;;;;;;;7.18;2.60;;;15.20;99.90;;;;;;4910917;29;20445;-87
2022/10/17 16:34:13;;;;;;;3.80;2.83;;;15.30;99.90;;;;;;4931003;29;20046;-87
2022/10/17 16:36:39;;;;;;;3.42;2.63;;;15.30;99.90;;;;;;4939675;29;20040;-87
2022/10/17 16:39:05;;;;;;;7.65;3.78;;;15.10;99.90;;;;;;4928767;29;20428;-87
2022/10/17 16:41:37;;;;;;;4.82;2.95;;;15.10;99.90;;;;;;4918241;29;20044;-87
2022/10/17 16:44:05;;;;;;;4.88;3.17;;;15.10;99.90;;;;;;4929654;29;20040;-87
2022/10/17 16:46:32;;;;;;;7.78;3.30;;;15.10;99.90;;;;;;4933439;29;20049;-87
2022/10/17 16:49:04;;;;;;;5.75;4.05;;;15.40;99.90;;;;;;4926538;29;20143;-87
2022/10/17 16:51:32;;;;;;;4.65;3.55;;;15.00;99.90;;;;;;4929628;29;20115;-87
2022/10/17 16:53:59;;;;;;;7.50;4.40;;;15.00;99.90;;;;;;4957612;28;20044;-87
2022/10/17 16:56:28;;;;;;;6.03;3.53;;;15.00;99.90;;;;;;4914989;29;20040;-87
2022/10/17 16:58:54;;;;;;;4.90;4.50;;;14.90;99.90;;;;;;4918088;29;20127;-87
2022/10/17 17:01:22;;;;;;;6.75;4.18;;;15.00;99.90;;;;;;4928636;29;20052;-87
2022/10/17 17:03:49;;;;;;;7.25;4.82;;;14.90;99.90;;;;;;4946029;28;20043;-87
2022/10/17 17:06:21;;;;;;;6.38;4.20;;;14.90;99.90;;;;;;4933422;29;20036;-87
2022/10/17 17:08:47;;;;;;;5.78;5.05;;;14.90;99.90;;;;;;4911416;29;20051;-87
2022/10/17 17:11:15;;;;;;;7.03;5.32;;;14.90;99.90;;;;;;4930723;29;20051;-86
2022/10/17 17:13:44;;;;;;;9.00;5.50;;;15.30;99.90;;;;;;4930185;29;20054;-87
2022/10/17 17:16:15;;;;;;;9.25;6.07;;;14.90;99.90;;;;;;4938211;29;20039;-87
2022/10/17 17:19:03;;;;;;;5.95;5.22;;;14.90;99.90;;;;;;4930110;29;20044;-87
2022/10/17 17:21:30;;;;;;;7.97;6.18;;;14.80;99.90;;;;;;4970066;28;20040;-87
2022/10/17 17:23:58;;;;;;;8.60;5.43;;;14.80;99.90;;;;;;4946491;28;20044;-87
2022/10/17 17:26:25;;;;;;;6.78;5.63;;;14.80;99.90;;;;;;4923599;29;20919;-87
2022/10/17 17:28:52;;;;;;;8.95;7.03;;;15.10;99.90;;;;;;4943582;28;20039;-87
2022/10/17 17:31:29;;;;;;;7.28;5.85;;;14.80;99.90;;;;;;4928888;29;20488;-87
2022/10/17 17:33:56;;;;;;;8.82;6.43;;;14.80;99.90;;;;;;4949257;28;20043;-87
2022/10/17 17:36:24;;;;;;;22.10;6.93;;;14.70;99.90;;;;;;4918221;29;20043;-87
2022/10/17 17:38:53;;;;;;;9.57;7.05;;;14.70;99.90;;;;;;4921244;29;20044;-87
2022/10/17 17:41:19;;;;;;;11.80;8.02;;;14.70;99.90;;;;;;4952334;28;20381;-87
2022/10/17 17:43:46;;;;;;;9.57;8.20;;;14.90;99.90;;;;;;4925645;29;20505;-87
2022/10/17 17:46:13;;;;;;;9.98;8.93;;;14.70;99.90;;;;;;4942568;28;20054;-87
2022/10/17 17:48:40;;;;;;;12.43;8.70;;;15.60;99.90;;;;;;4947969;28;20068;-87
2022/10/17 17:51:08;;;;;;;13.65;9.07;;;14.70;99.90;;;;;;4932929;29;20388;-87
2022/10/17 17:53:34;;;;;;;12.30;7.47;;;14.60;99.90;;;;;;4943058;28;20515;-87
2022/10/17 17:56:05;;;;;;;11.55;9.00;;;14.70;99.90;;;;;;4944165;28;20040;-87
2022/10/17 17:58:32;;;;;;;9.98;8.93;;;14.70;99.90;;;;;;4927054;29;20055;-87
2022/10/17 18:00:57;;;;;;;13.73;9.48;;;14.70;99.90;;;;;;4928040;29;20042;-87
2022/10/17 18:03:24;;;;;;;12.27;10.88;;;14.80;99.90;;;;;;4932676;29;20040;-87
2022/10/17 18:05:50;;;;;;;14.95;9.23;;;14.70;99.90;;;;;;4944590;28;20755;-87
2022/10/17 18:08:15;;;;;;;13.93;11.57;;;14.70;99.90;;;;;;4927284;29;20119;-86
2022/10/17 18:10:46;;;;;;;15.23;11.52;;;15.10;99.90;;;;;;4942019;28;20048;-87
2022/10/17 18:13:12;;;;;;;13.13;10.38;;;14.60;99.90;;;;;;4931292;29;20035;-87
2022/10/17 18:15:40;;;;;;;12.18;10.75;;;14.60;99.90;;;;;;4915624;29;20046;-87
2022/10/17 18:18:06;;;;;;;16.08;10.85;;;15.20;99.90;;;;;;4909634;29;20067;-87
2022/10/17 18:20:39;;;;;;;16.63;12.55;;;14.60;99.90;;;;;;4928929;29;20536;-87
2022/10/17 18:23:09;;;;;;;15.35;12.23;;;14.60;99.90;;;;;;4927507;29;20035;-87
2022/10/17 18:25:34;;;;;;;15.18;11.52;;;14.60;99.90;;;;;;4937866;28;20178;-87
2022/10/17 18:28:03;;;;;;;16.85;13.15;;;14.90;99.90;;;;;;4911923;29;20502;-87
2022/10/17 18:30:29;;;;;;;14.13;11.82;;;14.60;99.90;;;;;;4930000;29;20543;-87
2022/10/17 18:32:55;;;;;;;21.98;13.85;;;14.60;99.90;;;;;;4946547;28;20039;-87
2022/10/17 18:35:23;;;;;;;18.98;10.93;;;14.70;99.90;;;;;;4909830;29;20043;-87
2022/10/17 18:37:49;;;;;;;17.33;11.88;;;14.50;99.90;;;;;;4937788;29;20050;-87
2022/10/17 18:40:17;;;;;;;14.40;11.95;;;14.60;99.90;;;;;;4908989;29;20500;-87
2022/10/17 18:42:43;;;;;;;16.58;13.32;;;14.60;99.90;;;;;;4948750;28;20128;-87
2022/10/17 18:45:10;;;;;;;17.90;14.43;;;14.60;99.90;;;;;;4918193;29;20119;-87
2022/10/17 18:47:35;;;;;;;15.80;14.18;;;14.60;99.90;;;;;;4915566;29;20039;-87